Time;durP1;ratioP1;P1;durP2;ratioP2;P2;SDS_P1;SDS_P2;PMS_P1;PMS_P2;Temp;Humidity;BMP_temperature;BMP_pressure;BME280_temperature;BME280_humidity;BME280_pressure;Samples;Min_cycle;Max_cycle;Signal;HPM_P1;HPM_P2
2023/12/26 00:02:09;;;;;;;6.28;0.30;;;9.90;99.90;;;;;;5012500;28;20596;-63
2023/12/26 00:04:35;;;;;;;0.68;0.30;;;9.90;99.90;;;;;;5013231;28;20045;-63
2023/12/26 00:07:01;;;;;;;0.40;0.32;;;9.90;99.90;;;;;;5012593;28;20121;-63
2023/12/26 00:09:27;;;;;;;0.60;0.32;;;9.90;99.90;;;;;;5013126;28;20026;-63
2023/12/26 00:11:53;;;;;;;0.30;0.20;;;9.90;99.90;;;;;;5012279;28;20037;-63
2023/12/26 00:14:18;;;;;;;0.10;0.10;;;9.90;99.90;;;;;;5018311;28;20421;-63
2023/12/26 00:16:44;;;;;;;0.57;0.30;;;9.90;99.90;;;;;;5022241;28;20113;-63
2023/12/26 00:19:10;;;;;;;0.35;0.20;;;9.90;99.90;;;;;;5012952;28;20382;-62
2023/12/26 01:17:51;;;;;;;0.10;0.10;;;9.80;99.90;;;;;;5018586;28;20095;-63
2023/12/26 01:20:17;;;;;;;0.10;0.10;;;9.80;99.90;;;;;;5012022;28;20120;-63
2023/12/26 01:22:43;;;;;;;0.10;0.10;;;9.80;99.90;;;;;;5011191;28;20061;-63
2023/12/26 01:25:09;;;;;;;0.28;0.17;;;9.80;99.90;;;;;;4994305;28;20037;-64
2023/12/26 01:27:34;;;;;;;0.40;0.30;;;9.80;99.90;;;;;;5019295;28;20030;-64
2023/12/26 01:30:02;;;;;;;0.10;0.10;;;9.70;99.90;;;;;;5012124;28;20061;-63
2023/12/26 01:32:29;;;;;;;2.63;0.68;;;9.80;99.90;;;;;;5025917;28;20045;-63
2023/12/26 01:34:54;;;;;;;0.22;0.20;;;9.80;99.90;;;;;;5031663;28;20025;-63
2023/12/26 01:37:20;;;;;;;0.17;0.17;;;9.70;99.90;;;;;;5010879;28;20037;-64
2023/12/26 01:39:46;;;;;;;0.47;0.10;;;9.70;99.90;;;;;;5031473;28;20113;-64
2023/12/26 01:42:13;;;;;;;0.38;0.20;;;9.70;99.90;;;;;;5016552;28;20053;-63
2023/12/26 01:44:38;;;;;;;0.15;0.15;;;9.80;99.90;;;;;;5011591;28;20032;-64
2023/12/26 01:47:04;;;;;;;0.30;0.28;;;9.80;99.90;;;;;;5010914;28;20030;-64
2023/12/26 01:49:30;;;;;;;0.17;0.17;;;9.90;99.90;;;;;;4993954;28;20422;-63
2023/12/26 01:51:58;;;;;;;0.95;0.20;;;9.90;99.90;;;;;;5020868;28;20057;-63
2023/12/26 01:54:31;;;;;;;0.15;0.15;;;10.00;99.90;;;;;;5013706;28;20045;-63
2023/12/26 01:56:58;;;;;;;0.17;0.15;;;10.00;99.90;;;;;;5000666;28;20034;-64
2023/12/26 01:59:24;;;;;;;0.57;0.17;;;10.00;99.90;;;;;;4999921;28;20056;-63
2023/12/26 02:01:50;;;;;;;0.05;0.05;;;10.20;99.90;;;;;;5003700;28;20037;-63
2023/12/26 02:04:16;;;;;;;0.30;0.30;;;10.20;99.90;;;;;;4997013;28;20076;-63
2023/12/26 02:06:42;;;;;;;0.25;0.15;;;10.20;99.90;;;;;;5006027;28;20041;-64
2023/12/26 02:09:11;;;;;;;0.30;0.20;;;10.20;99.90;;;;;;5019006;28;20101;-63
2023/12/26 02:11:40;;;;;;;0.63;0.60;;;10.20;99.90;;;;;;5014210;28;20030;-63
2023/12/26 02:14:06;;;;;;;0.20;0.20;;;10.20;99.90;;;;;;4992642;28;20028;-63
2023/12/26 02:16:37;;;;;;;0.35;0.15;;;10.20;99.90;;;;;;5006694;28;20033;-63
2023/12/26 02:19:03;;;;;;;0.63;0.20;;;10.10;99.90;;;;;;4992874;28;20025;-63
2023/12/26 02:21:29;;;;;;;0.22;0.13;;;10.30;99.90;;;;;;5007449;28;20449;-63
2023/12/26 02:23:56;;;;;;;0.35;0.15;;;10.30;99.90;;;;;;5026536;28;20056;-63
2023/12/26 02:26:29;;;;;;;2.97;0.70;;;10.40;99.90;;;;;;5020068;28;20034;-63
2023/12/26 02:28:56;;;;;;;1.10;0.25;;;10.40;99.90;;;;;;4998871;28;20033;-62
2023/12/26 02:31:24;;;;;;;0.85;0.85;;;10.40;99.90;;;;;;4997010;28;20105;-63
2023/12/26 02:33:50;;;;;;;0.50;0.30;;;10.40;99.90;;;;;;4997229;28;20032;-63
2023/12/26 02:36:16;;;;;;;0.85;0.60;;;10.40;99.90;;;;;;5014196;28;20030;-64
2023/12/26 02:38:42;;;;;;;1.10;0.60;;;10.40;99.90;;;;;;5014750;28;20029;-63
2023/12/26 02:41:07;;;;;;;0.65;0.50;;;10.40;99.90;;;;;;5012914;28;20551;-63
2023/12/26 02:43:33;;;;;;;6.43;1.02;;;10.50;99.90;;;;;;5034311;28;20031;-63
2023/12/26 02:45:59;;;;;;;0.90;0.40;;;10.50;99.90;;;;;;4999881;28;20105;-63
2023/12/26 02:48:25;;;;;;;3.42;1.00;;;10.40;99.90;;;;;;5034121;28;20036;-64
2023/12/26 02:50:52;;;;;;;1.75;0.85;;;10.50;99.90;;;;;;5015616;28;20246;-63
2023/12/26 02:53:18;;;;;;;1.77;0.60;;;10.50;99.90;;;;;;5019366;28;20060;-63
2023/12/26 02:55:44;;;;;;;2.42;0.73;;;10.40;99.90;;;;;;5031216;28;20029;-63
2023/12/26 02:58:10;;;;;;;9.23;1.73;;;10.40;99.90;;;;;;5014259;28;20441;-63
2023/12/26 03:00:35;;;;;;;0.63;0.50;;;10.40;99.90;;;;;;5028250;28;20755;-62
2023/12/26 03:03:01;;;;;;;10.75;1.08;;;10.40;99.90;;;;;;5013948;28;20037;-63
2023/12/26 03:05:27;;;;;;;0.68;0.30;;;10.50;99.90;;;;;;5014130;28;20022;-63
2023/12/26 03:07:53;;;;;;;0.32;0.32;;;10.40;99.90;;;;;;4995946;28;20076;-63
2023/12/26 03:10:19;;;;;;;2.05;0.90;;;10.40;99.90;;;;;;5014168;28;20036;-62
2023/12/26 03:12:44;;;;;;;1.17;0.68;;;10.50;99.90;;;;;;5012802;28;20036;-63
2023/12/26 03:15:14;;;;;;;4.07;1.30;;;10.50;99.90;;;;;;5018591;28;20029;-63
2023/12/26 03:17:40;;;;;;;1.55;0.68;;;10.50;99.90;;;;;;5013429;28;20076;-63
2023/12/26 03:20:06;;;;;;;0.60;0.52;;;10.40;99.90;;;;;;5013909;28;20037;-63
2023/12/26 03:22:32;;;;;;;2.38;0.60;;;10.40;99.90;;;;;;5012921;28;20037;-63
2023/12/26 03:24:58;;;;;;;6.45;1.02;;;10.40;99.90;;;;;;5013818;28;20497;-63
2023/12/26 03:27:24;;;;;;;0.65;0.43;;;10.40;99.90;;;;;;5013124;28;20389;-64
2023/12/26 03:29:50;;;;;;;6.57;0.70;;;10.40;99.90;;;;;;4995978;28;20057;-63
2023/12/26 03:32:20;;;;;;;10.77;2.25;;;10.40;99.90;;;;;;5012766;28;20477;-63
2023/12/26 03:34:46;;;;;;;9.63;0.30;;;10.30;99.90;;;;;;5013666;28;20172;-63
2023/12/26 03:37:12;;;;;;;3.08;1.27;;;10.30;99.90;;;;;;5013096;28;20112;-64
2023/12/26 03:39:38;;;;;;;11.70;1.25;;;10.40;99.90;;;;;;4996066;28;20042;-63
2023/12/26 03:42:04;;;;;;;0.63;0.50;;;10.30;99.90;;;;;;5012586;28;20401;-63
2023/12/26 03:44:30;;;;;;;2.55;0.57;;;10.30;99.90;;;;;;5013230;28;20033;-63
2023/12/26 03:46:55;;;;;;;1.73;1.27;;;10.30;99.90;;;;;;5014547;28;20486;-63
2023/12/26 03:49:21;;;;;;;0.95;0.65;;;10.30;99.90;;;;;;5019665;28;20033;-63
2023/12/26 03:51:47;;;;;;;2.33;0.68;;;10.40;99.90;;;;;;5012479;28;20030;-63
2023/12/26 03:54:14;;;;;;;0.30;0.30;;;10.40;99.90;;;;;;5013588;28;20022;-63
2023/12/26 03:56:40;;;;;;;5.57;1.05;;;10.40;99.90;;;;;;4995285;28;20128;-63
2023/12/26 03:59:06;;;;;;;9.05;1.30;;;10.30;99.90;;;;;;5013064;28;20458;-63
2023/12/26 04:01:32;;;;;;;2.25;0.80;;;10.30;99.90;;;;;;4994926;28;20101;-64
2023/12/26 04:03:57;;;;;;;1.88;0.30;;;10.30;99.90;;;;;;5003728;28;20057;-63
2023/12/26 04:06:23;;;;;;;1.58;0.70;;;10.30;99.90;;;;;;5018323;28;20058;-62
2023/12/26 04:08:49;;;;;;;1.17;1.08;;;10.20;99.90;;;;;;5015573;28;20630;-62
2023/12/26 04:11:15;;;;;;;6.60;0.95;;;10.30;99.90;;;;;;5001682;28;20116;-62
2023/12/26 04:13:41;;;;;;;3.22;0.55;;;10.20;99.90;;;;;;5021121;28;20467;-62
2023/12/26 04:16:07;;;;;;;7.90;0.52;;;10.20;99.90;;;;;;5026999;28;20029;-62
2023/12/26 04:18:33;;;;;;;2.25;0.93;;;10.20;99.90;;;;;;5017956;28;20030;-64
2023/12/26 04:20:59;;;;;;;5.47;1.63;;;10.20;99.90;;;;;;5011486;28;20072;-62
2023/12/26 04:23:25;;;;;;;2.92;0.60;;;10.20;99.90;;;;;;5032246;28;20022;-62
2023/12/26 04:25:51;;;;;;;1.45;0.73;;;10.20;99.90;;;;;;5029390;28;20111;-63
2023/12/26 04:28:17;;;;;;;4.70;1.05;;;10.10;99.90;;;;;;5012907;28;20030;-63
2023/12/26 04:30:43;;;;;;;1.50;0.65;;;10.10;99.90;;;;;;5011812;28;20101;-63
2023/12/26 04:33:10;;;;;;;0.88;0.55;;;10.10;99.90;;;;;;4990786;28;20029;-60
2023/12/26 05:31:04;;;;;;;10.35;1.85;;;10.30;99.90;;;;;;5022550;28;20048;-62
2023/12/26 05:33:34;;;;;;;1.70;0.70;;;10.30;99.90;;;;;;5008875;28;20041;-62
2023/12/26 05:36:01;;;;;;;0.85;0.50;;;10.30;99.90;;;;;;5008038;28;20048;-62
2023/12/26 05:38:27;;;;;;;13.57;1.15;;;10.30;99.90;;;;;;5000310;28;20036;-63
2023/12/26 05:40:52;;;;;;;6.70;1.05;;;10.30;99.90;;;;;;5028602;28;20034;-63
2023/12/26 05:43:18;;;;;;;0.52;0.45;;;10.30;99.90;;;;;;5013099;28;20026;-63
2023/12/26 06:07:49;;;;;;;0.20;0.20;;;10.40;99.90;;;;;;5010878;28;20367;-62
2023/12/26 06:10:14;;;;;;;1.05;0.52;;;10.40;99.90;;;;;;5031657;28;20036;-62
2023/12/26 06:12:40;;;;;;;3.88;0.70;;;10.40;99.90;;;;;;5020575;28;20034;-62
2023/12/26 06:15:07;;;;;;;0.88;0.40;;;10.40;99.90;;;;;;5024280;28;20045;-62
2023/12/26 06:17:34;;;;;;;5.13;0.77;;;10.40;99.90;;;;;;5010850;28;20180;-63
2023/12/26 06:20:00;;;;;;;0.55;0.55;;;10.50;99.90;;;;;;5013533;28;20068;-62
2023/12/26 06:22:26;;;;;;;3.75;1.17;;;10.50;99.90;;;;;;5014770;28;20382;-63
2023/12/26 06:24:51;;;;;;;0.88;0.35;;;10.50;99.90;;;;;;5011353;28;20029;-62
2023/12/26 06:27:17;;;;;;;1.08;0.70;;;10.40;99.90;;;;;;5015298;28;20025;-62
2023/12/26 06:29:43;;;;;;;1.23;0.47;;;10.40;99.90;;;;;;5031031;28;20025;-62
2023/12/26 06:32:09;;;;;;;0.38;0.38;;;10.50;99.90;;;;;;5004567;28;20490;-61
2023/12/26 06:34:37;;;;;;;8.40;1.80;;;10.50;99.90;;;;;;5017999;28;20474;-62
2023/12/26 06:37:04;;;;;;;6.60;0.80;;;10.50;99.90;;;;;;5000527;28;20080;-62
2023/12/26 06:39:31;;;;;;;3.95;1.15;;;10.50;99.90;;;;;;5001805;28;20029;-62
2023/12/26 06:41:56;;;;;;;3.75;1.60;;;10.40;99.90;;;;;;5010273;28;20593;-62
2023/12/26 06:44:22;;;;;;;2.20;1.02;;;10.50;99.90;;;;;;5011463;28;20058;-62
2023/12/26 06:46:48;;;;;;;3.17;0.52;;;10.50;99.90;;;;;;5018916;28;20501;-64
2023/12/26 06:49:17;;;;;;;0.45;0.40;;;10.40;99.90;;;;;;5018943;28;20061;-62
2023/12/26 06:51:43;;;;;;;3.78;1.10;;;10.40;99.90;;;;;;5023962;28;20061;-63
2023/12/26 06:54:08;;;;;;;3.08;1.63;;;10.50;99.90;;;;;;5018277;28;20057;-64
2023/12/26 06:56:34;;;;;;;0.70;0.30;;;10.40;99.90;;;;;;5031884;28;20064;-64
2023/12/26 06:59:00;;;;;;;3.38;0.60;;;10.40;99.90;;;;;;5032007;28;20025;-63
2023/12/26 07:01:26;;;;;;;2.97;0.77;;;10.40;99.90;;;;;;5019820;28;20382;-62
2023/12/26 07:03:52;;;;;;;3.70;0.65;;;10.40;99.90;;;;;;5014746;28;20417;-61
2023/12/26 07:06:18;;;;;;;1.63;1.15;;;10.40;99.90;;;;;;5014187;28;20033;-62
2023/12/26 07:08:43;;;;;;;1.40;0.57;;;10.40;99.90;;;;;;5014649;28;20048;-64
2023/12/26 07:11:09;;;;;;;2.85;1.35;;;10.40;99.90;;;;;;5020186;28;20037;-63
2023/12/26 07:13:35;;;;;;;8.75;0.73;;;10.50;99.90;;;;;;4996775;28;20386;-63
2023/12/26 07:16:01;;;;;;;3.33;0.55;;;10.50;99.90;;;;;;5016203;28;20036;-62
2023/12/26 07:18:29;;;;;;;10.05;1.50;;;10.40;99.90;;;;;;5034201;28;20033;-63
2023/12/26 07:20:55;;;;;;;0.57;0.40;;;10.40;99.90;;;;;;5029752;28;20030;-62
2023/12/26 07:23:21;;;;;;;1.15;0.68;;;10.40;99.90;;;;;;5014144;28;20037;-65
2023/12/26 07:25:46;;;;;;;4.82;1.20;;;10.40;99.90;;;;;;5013700;28;20485;-62
2023/12/26 07:28:14;;;;;;;0.63;0.47;;;10.40;99.90;;;;;;4992682;28;20029;-63
2023/12/26 07:30:40;;;;;;;10.05;1.25;;;10.40;99.90;;;;;;4993965;28;20022;-62
2023/12/26 07:33:09;;;;;;;1.65;0.85;;;10.40;99.90;;;;;;5013993;28;20029;-63
2023/12/26 07:35:38;;;;;;;1.60;0.90;;;10.40;99.90;;;;;;5013652;28;20474;-63
2023/12/26 07:38:05;;;;;;;4.40;0.55;;;10.30;99.90;;;;;;5014990;28;20041;-62
2023/12/26 07:40:32;;;;;;;0.57;0.52;;;10.20;99.90;;;;;;5033281;28;20385;-62
2023/12/26 07:42:58;;;;;;;0.52;0.32;;;10.20;99.90;;;;;;5002612;28;20026;-63
2023/12/26 07:45:25;;;;;;;3.78;0.65;;;10.20;99.90;;;;;;4996523;28;20559;-63
2023/12/26 07:47:54;;;;;;;6.90;0.52;;;10.20;99.90;;;;;;5022338;28;20026;-62
2023/12/26 07:50:22;;;;;;;0.40;0.38;;;10.20;99.90;;;;;;5020820;28;20057;-63
2023/12/26 07:52:48;;;;;;;9.40;1.20;;;10.10;99.90;;;;;;5013790;28;20021;-63
2023/12/26 07:55:14;;;;;;;1.15;0.65;;;10.10;99.90;;;;;;5035140;28;20029;-63
2023/12/26 07:57:39;;;;;;;1.70;0.77;;;10.10;99.90;;;;;;5016796;28;20091;-62
2023/12/26 08:00:06;;;;;;;4.43;0.50;;;10.10;99.90;;;;;;5012790;28;20057;-62
2023/12/26 08:02:32;;;;;;;0.32;0.32;;;10.10;99.90;;;;;;5006572;28;20038;-63
2023/12/26 08:04:58;;;;;;;0.15;0.15;;;10.10;99.90;;;;;;5030249;28;20091;-63
2023/12/26 08:07:23;;;;;;;0.93;0.32;;;10.00;99.90;;;;;;5017203;28;20030;-62
2023/12/26 08:09:49;;;;;;;5.45;0.55;;;10.00;99.90;;;;;;5014397;28;20116;-62
2023/12/26 08:12:15;;;;;;;0.20;0.20;;;10.00;99.90;;;;;;5018105;28;20025;-62
2023/12/26 08:14:41;;;;;;;3.38;0.60;;;10.10;99.90;;;;;;5013176;28;20045;-63
2023/12/26 08:17:07;;;;;;;0.47;0.47;;;10.00;99.90;;;;;;5012896;28;20033;-62
2023/12/26 08:19:33;;;;;;;0.60;0.40;;;10.00;99.90;;;;;;5013413;28;20060;-62
2023/12/26 08:21:59;;;;;;;0.40;0.38;;;9.90;99.90;;;;;;5012583;28;20121;-62
2023/12/26 08:24:24;;;;;;;5.32;0.65;;;9.90;99.90;;;;;;5013382;28;20164;-61
2023/12/26 08:26:53;;;;;;;2.00;0.43;;;10.00;99.90;;;;;;5012603;28;20041;-62
2023/12/26 08:29:20;;;;;;;0.43;0.28;;;9.90;99.90;;;;;;5013076;28;20059;-62
2023/12/26 08:31:46;;;;;;;4.82;0.40;;;9.90;99.90;;;;;;5012387;28;20021;-63
2023/12/26 08:34:13;;;;;;;1.65;0.45;;;9.80;99.90;;;;;;5015220;28;20408;-63
2023/12/26 08:36:38;;;;;;;0.52;0.30;;;9.90;99.90;;;;;;5005067;28;20034;-62
2023/12/26 08:39:04;;;;;;;0.80;0.40;;;9.90;99.90;;;;;;5021278;28;20040;-63
2023/12/26 08:41:33;;;;;;;3.08;0.57;;;9.90;99.90;;;;;;5012233;28;20034;-63
2023/12/26 08:43:59;;;;;;;1.65;1.25;;;9.90;99.90;;;;;;4997347;28;20092;-63
2023/12/26 08:46:25;;;;;;;3.53;0.50;;;9.80;99.90;;;;;;5024746;28;20057;-62
2023/12/26 08:48:51;;;;;;;0.28;0.28;;;9.80;99.90;;;;;;5012451;28;20041;-63
2023/12/26 08:51:19;;;;;;;1.48;0.57;;;9.90;99.90;;;;;;5018241;28;20500;-62
2023/12/26 08:53:47;;;;;;;3.17;0.38;;;9.90;99.90;;;;;;5012930;28;20022;-62
2023/12/26 08:56:13;;;;;;;3.20;0.55;;;9.90;99.90;;;;;;5029659;28;20032;-62
2023/12/26 08:58:39;;;;;;;0.32;0.20;;;9.90;99.90;;;;;;5032463;28;20057;-62
2023/12/26 09:01:10;;;;;;;0.43;0.22;;;9.90;99.90;;;;;;5001715;28;20407;-63
2023/12/26 09:03:39;;;;;;;1.45;0.47;;;9.90;99.90;;;;;;4995678;28;20105;-63
2023/12/26 09:06:05;;;;;;;0.20;0.20;;;9.90;99.90;;;;;;5026287;28;20500;-63
2023/12/26 09:08:31;;;;;;;0.45;0.30;;;9.90;99.90;;;;;;5012372;28;20022;-63
2023/12/26 09:10:57;;;;;;;0.65;0.50;;;9.90;99.90;;;;;;4993916;28;20030;-63
2023/12/26 09:13:26;;;;;;;5.35;0.57;;;9.90;99.90;;;;;;5012544;28;20458;-63
2023/12/26 09:15:52;;;;;;;1.13;0.82;;;9.90;99.90;;;;;;4994543;28;20107;-62
2023/12/26 09:18:20;;;;;;;0.65;0.50;;;9.90;99.90;;;;;;4990564;28;20487;-62
2023/12/26 09:20:46;;;;;;;1.35;0.32;;;9.90;99.90;;;;;;5016420;28;20049;-63
2023/12/26 09:23:12;;;;;;;5.38;0.70;;;9.90;99.90;;;;;;5031927;28;20025;-63
2023/12/26 09:25:39;;;;;;;0.90;0.55;;;9.90;99.90;;;;;;5006395;28;20055;-63
2023/12/26 09:28:09;;;;;;;0.32;0.22;;;9.90;99.90;;;;;;5013527;28;20394;-63
2023/12/26 09:30:36;;;;;;;0.65;0.28;;;10.00;99.90;;;;;;5012684;28;20025;-63
2023/12/26 09:33:02;;;;;;;0.20;0.20;;;9.90;99.90;;;;;;4993230;28;20030;-62
2023/12/26 09:35:29;;;;;;;0.75;0.50;;;9.90;99.90;;;;;;5012079;28;20021;-63
2023/12/26 09:37:55;;;;;;;2.17;0.30;;;9.90;99.90;;;;;;4994129;28;20029;-63
2023/12/26 09:40:21;;;;;;;2.55;0.93;;;9.90;99.90;;;;;;4994665;28;20038;-63
2023/12/26 09:42:47;;;;;;;0.70;0.52;;;9.90;99.90;;;;;;5010125;28;20120;-62
2023/12/26 09:45:13;;;;;;;0.35;0.20;;;9.90;99.90;;;;;;5014013;28;20174;-64
2023/12/26 09:47:43;;;;;;;0.15;0.15;;;10.00;99.90;;;;;;4994751;28;20036;-62
2023/12/26 09:50:10;;;;;;;1.95;0.15;;;9.90;99.90;;;;;;4994367;28;20026;-62
2023/12/26 09:52:37;;;;;;;0.82;0.63;;;9.90;99.90;;;;;;5011302;28;20653;-63
2023/12/26 09:55:03;;;;;;;1.05;0.35;;;9.90;99.90;;;;;;5030374;28;20444;-63
2023/12/26 09:57:30;;;;;;;0.77;0.30;;;9.90;99.90;;;;;;4995736;28;20033;-63
2023/12/26 09:59:56;;;;;;;1.55;0.38;;;9.90;99.90;;;;;;5011713;28;20029;-63
2023/12/26 10:02:22;;;;;;;0.90;0.30;;;10.00;99.90;;;;;;5001588;28;20124;-63
2023/12/26 10:04:48;;;;;;;0.40;0.30;;;10.10;99.90;;;;;;4994298;28;20545;-63
2023/12/26 10:07:14;;;;;;;1.02;0.60;;;10.10;99.90;;;;;;4998005;28;20041;-64
2023/12/26 10:09:41;;;;;;;0.20;0.20;;;10.10;99.90;;;;;;5011504;28;20017;-63
2023/12/26 10:12:07;;;;;;;0.17;0.17;;;10.10;99.90;;;;;;5016845;28;20113;-63
2023/12/26 10:14:33;;;;;;;0.57;0.38;;;10.10;99.90;;;;;;4994006;28;20033;-63
2023/12/26 10:17:03;;;;;;;1.10;0.22;;;10.10;99.90;;;;;;5012941;28;20042;-63
2023/12/26 10:19:29;;;;;;;0.45;0.32;;;10.10;99.90;;;;;;5014228;28;20033;-63
2023/12/26 10:21:55;;;;;;;1.42;0.50;;;10.20;99.90;;;;;;5001974;28;20044;-65
2023/12/26 10:24:21;;;;;;;1.00;0.17;;;10.10;99.90;;;;;;4997873;28;20029;-63
2023/12/26 10:26:47;;;;;;;0.10;0.10;;;10.20;99.90;;;;;;5015021;28;20449;-63
2023/12/26 10:29:16;;;;;;;0.20;0.20;;;10.20;99.90;;;;;;4997756;28;20022;-63
2023/12/26 10:31:44;;;;;;;0.45;0.20;;;10.20;99.90;;;;;;4996838;28;20378;-63
2023/12/26 10:34:19;;;;;;;0.20;0.20;;;10.20;99.90;;;;;;4997965;28;20632;-63
2023/12/26 10:36:50;;;;;;;1.15;0.90;;;10.20;99.90;;;;;;5008831;28;20393;-63
2023/12/26 10:39:17;;;;;;;0.45;0.30;;;10.20;99.90;;;;;;5015084;28;20025;-63
2023/12/26 10:41:46;;;;;;;3.22;0.73;;;10.20;99.90;;;;;;5014348;28;20061;-63
2023/12/26 10:44:17;;;;;;;1.17;0.15;;;10.20;99.90;;;;;;5006077;28;20026;-63
2023/12/26 10:46:45;;;;;;;2.63;0.77;;;10.20;99.90;;;;;;5014713;28;20049;-63
2023/12/26 10:49:20;;;;;;;0.50;0.38;;;10.20;99.90;;;;;;4997561;28;20029;-62
2023/12/26 10:51:48;;;;;;;0.32;0.32;;;10.20;99.90;;;;;;5014047;28;20034;-63
2023/12/26 10:54:24;;;;;;;0.50;0.40;;;10.20;99.90;;;;;;4997288;28;20037;-63
2023/12/26 10:56:51;;;;;;;0.25;0.25;;;10.20;99.90;;;;;;4997225;28;20038;-63
2023/12/26 13:52:12;;;;;;;1.15;0.55;;;10.60;99.90;;;;;;5016723;28;20548;-64
2023/12/26 13:54:38;;;;;;;1.35;0.73;;;10.30;99.90;;;;;;5011826;28;20125;-62
2023/12/26 13:57:06;;;;;;;11.52;1.08;;;10.20;99.90;;;;;;5010491;28;20060;-64
2023/12/26 13:59:32;;;;;;;1.02;0.65;;;10.20;99.90;;;;;;4994262;28;20503;-64
2023/12/26 14:01:57;;;;;;;2.35;0.35;;;10.20;99.90;;;;;;5013861;28;20076;-63
2023/12/26 14:04:23;;;;;;;7.55;1.25;;;10.20;99.90;;;;;;5007291;28;20071;-63
2023/12/26 14:06:51;;;;;;;0.25;0.25;;;10.20;99.90;;;;;;5020087;28;20089;-63
2023/12/26 14:09:17;;;;;;;5.10;1.10;;;10.30;99.90;;;;;;5031385;28;20405;-63
2023/12/26 14:11:43;;;;;;;0.55;0.30;;;10.30;99.90;;;;;;5020680;28;20045;-63
2023/12/26 14:14:08;;;;;;;1.50;0.30;;;10.40;99.90;;;;;;5011457;28;20030;-63
2023/12/26 14:16:34;;;;;;;0.80;0.63;;;10.30;99.90;;;;;;5011232;28;20034;-63
2023/12/26 14:19:00;;;;;;;1.45;0.57;;;10.40;99.90;;;;;;5012383;28;20030;-63
2023/12/26 14:21:26;;;;;;;7.30;2.55;;;10.50;99.90;;;;;;4970336;28;20378;-64
2023/12/26 14:23:51;;;;;;;1.10;0.50;;;10.50;99.90;;;;;;5011454;28;20033;-63
2023/12/26 14:26:17;;;;;;;1.75;0.52;;;10.50;99.90;;;;;;5011042;28;20092;-63
2023/12/26 14:28:43;;;;;;;1.48;0.80;;;10.40;99.90;;;;;;5011470;28;20038;-63
2023/12/26 14:31:09;;;;;;;0.32;0.30;;;10.40;99.90;;;;;;5013153;28;20116;-63
2023/12/26 14:33:34;;;;;;;3.40;0.50;;;10.40;99.90;;;;;;5031258;28;20458;-63
2023/12/26 14:36:00;;;;;;;0.82;0.30;;;10.50;99.90;;;;;;5026796;28;20026;-64
2023/12/26 14:38:26;;;;;;;0.52;0.22;;;10.50;99.90;;;;;;5011398;28;20037;-64
2023/12/26 14:40:51;;;;;;;1.58;0.65;;;10.50;99.90;;;;;;5010617;28;20069;-64
2023/12/26 14:43:17;;;;;;;1.00;0.38;;;10.50;99.90;;;;;;4993935;28;20343;-63
2023/12/26 14:45:43;;;;;;;0.52;0.40;;;10.50;99.90;;;;;;5010715;28;20101;-62
2023/12/26 14:48:09;;;;;;;1.92;0.75;;;10.60;99.90;;;;;;5011299;28;20104;-64
2023/12/26 14:50:35;;;;;;;0.55;0.38;;;10.70;99.90;;;;;;5010544;28;20039;-63
2023/12/26 14:53:00;;;;;;;0.45;0.40;;;10.60;99.90;;;;;;5011201;28;20125;-65
2023/12/26 14:55:26;;;;;;;0.95;0.57;;;10.60;99.90;;;;;;4993552;28;20026;-64
2023/12/26 14:57:52;;;;;;;7.22;0.95;;;10.50;99.90;;;;;;5010497;28;20482;-63
2023/12/26 15:00:18;;;;;;;1.85;0.85;;;10.40;99.90;;;;;;5011236;28;20504;-64
2023/12/26 15:02:44;;;;;;;3.33;1.23;;;10.30;99.90;;;;;;5010602;28;20049;-63
2023/12/26 15:05:10;;;;;;;2.17;0.90;;;10.40;99.90;;;;;;5009724;28;20056;-63
2023/12/26 15:07:37;;;;;;;1.27;0.85;;;10.30;99.90;;;;;;4993286;28;20478;-63
2023/12/26 15:10:04;;;;;;;8.20;1.38;;;10.20;99.90;;;;;;5015081;28;20025;-63
2023/12/26 15:12:30;;;;;;;2.42;0.80;;;10.00;99.90;;;;;;4999428;28;20474;-63
2023/12/26 15:14:56;;;;;;;2.83;0.75;;;10.00;99.90;;;;;;5014537;28;20045;-64
2023/12/26 15:17:22;;;;;;;1.05;0.82;;;10.00;99.90;;;;;;5013965;28;20030;-65
2023/12/26 15:19:48;;;;;;;1.42;0.90;;;10.00;99.90;;;;;;5014561;28;20044;-63
2023/12/26 15:22:15;;;;;;;1.98;0.82;;;10.00;99.90;;;;;;5013733;28;20021;-68
2023/12/26 15:24:41;;;;;;;1.13;0.40;;;10.10;99.90;;;;;;5014376;28;20088;-63
2023/12/26 15:27:07;;;;;;;6.55;1.30;;;10.10;99.90;;;;;;4995900;28;20473;-64
2023/12/26 15:29:34;;;;;;;2.10;1.70;;;10.10;99.90;;;;;;5014067;28;20061;-64
2023/12/26 15:32:00;;;;;;;1.80;1.42;;;10.00;99.90;;;;;;5013064;28;20018;-62
2023/12/26 15:34:26;;;;;;;1.00;0.63;;;9.90;99.90;;;;;;4996416;28;20033;-64
2023/12/26 15:36:52;;;;;;;3.38;0.77;;;9.90;99.90;;;;;;4995761;28;20029;-64
2023/12/26 15:39:18;;;;;;;2.33;0.77;;;9.90;99.90;;;;;;5013814;28;20030;-64
2023/12/26 15:41:44;;;;;;;0.35;0.30;;;10.00;99.90;;;;;;5020589;28;20037;-64
2023/12/26 15:44:10;;;;;;;2.75;0.80;;;10.00;99.90;;;;;;5033567;28;20030;-64
2023/12/26 15:46:36;;;;;;;0.45;0.35;;;10.00;99.90;;;;;;5024308;28;20531;-64
2023/12/26 15:49:02;;;;;;;1.08;0.50;;;10.10;99.90;;;;;;5015838;28;20073;-63
2023/12/26 15:51:27;;;;;;;0.80;0.70;;;10.00;99.90;;;;;;5005559;28;20025;-63
2023/12/26 15:53:53;;;;;;;0.73;0.43;;;10.00;99.90;;;;;;4996091;28;20474;-63
2023/12/26 15:56:23;;;;;;;3.97;0.85;;;10.00;99.90;;;;;;5013333;28;20041;-63
2023/12/26 15:58:49;;;;;;;1.80;0.88;;;10.00;99.90;;;;;;4996390;28;20038;-62
2023/12/26 16:01:16;;;;;;;2.13;0.95;;;10.10;99.90;;;;;;4987256;28;20029;-63
2023/12/26 16:03:44;;;;;;;2.13;1.02;;;10.00;99.90;;;;;;4996461;28;20036;-63
2023/12/26 16:06:23;;;;;;;3.33;1.63;;;10.00;99.90;;;;;;4995067;28;20037;-63
2023/12/26 16:08:48;;;;;;;0.52;0.45;;;10.00;99.90;;;;;;5013371;28;20433;-63
2023/12/26 16:11:15;;;;;;;1.02;0.60;;;9.90;99.90;;;;;;5012635;28;20037;-63
2023/12/26 16:13:41;;;;;;;3.25;1.00;;;9.90;99.90;;;;;;5013335;28;20061;-63
2023/12/26 16:16:07;;;;;;;0.65;0.50;;;10.00;99.90;;;;;;5009817;28;20387;-62
2023/12/26 16:18:34;;;;;;;3.22;0.85;;;9.90;99.90;;;;;;5013570;28;20022;-63
2023/12/26 16:21:03;;;;;;;0.57;0.50;;;9.90;99.90;;;;;;5011573;28;20033;-63
2023/12/26 16:23:29;;;;;;;0.88;0.75;;;9.90;99.90;;;;;;5013174;28;20053;-63
2023/12/26 16:25:55;;;;;;;1.30;1.00;;;9.80;99.90;;;;;;5021051;28;20489;-63
2023/12/26 16:28:20;;;;;;;1.20;0.70;;;9.80;99.90;;;;;;5033026;28;20473;-63
2023/12/26 16:30:46;;;;;;;2.92;1.15;;;9.80;99.90;;;;;;5024106;28;20042;-63
2023/12/26 16:33:12;;;;;;;3.70;0.73;;;9.80;99.90;;;;;;5012881;28;20029;-63
2023/12/26 16:35:38;;;;;;;2.85;1.65;;;9.80;99.90;;;;;;5012610;28;20101;-64
2023/12/26 16:38:04;;;;;;;3.83;0.93;;;9.70;99.90;;;;;;5012667;28;20033;-63
2023/12/26 16:40:29;;;;;;;5.90;1.33;;;9.70;99.90;;;;;;5012630;28;20410;-63
2023/12/26 16:42:55;;;;;;;3.67;0.93;;;9.60;99.90;;;;;;5012694;28;20041;-65
2023/12/26 16:45:21;;;;;;;3.67;1.27;;;9.60;99.90;;;;;;5011632;28;20096;-63
2023/12/26 16:47:48;;;;;;;2.03;1.05;;;9.50;99.90;;;;;;5012413;28;20421;-64
2023/12/26 16:50:15;;;;;;;1.40;1.30;;;9.50;99.90;;;;;;5012943;28;20030;-63
2023/12/26 16:52:43;;;;;;;1.23;0.90;;;9.50;99.90;;;;;;4994602;28;20022;-63
2023/12/26 16:55:08;;;;;;;6.20;0.80;;;9.40;99.90;;;;;;4995000;28;20034;-63
2023/12/26 16:57:34;;;;;;;1.95;1.17;;;9.40;99.90;;;;;;5012247;28;20441;-63
2023/12/26 17:00:00;;;;;;;4.32;1.20;;;9.40;99.90;;;;;;5012862;28;20029;-64
2023/12/26 17:02:27;;;;;;;0.85;0.70;;;9.30;99.90;;;;;;5017205;28;20029;-63
2023/12/26 17:04:53;;;;;;;1.15;0.57;;;9.30;99.90;;;;;;5036488;28;20056;-64
2023/12/26 17:07:19;;;;;;;2.45;1.20;;;9.30;99.90;;;;;;5019176;28;20490;-64
2023/12/26 17:09:45;;;;;;;1.90;0.50;;;9.30;99.90;;;;;;5013074;28;20022;-64
2023/12/26 17:12:11;;;;;;;0.98;0.70;;;9.30;99.90;;;;;;5011816;28;20022;-63
2023/12/26 17:14:37;;;;;;;4.55;1.00;;;9.40;99.90;;;;;;4992431;28;20057;-66
2023/12/26 17:17:04;;;;;;;1.67;0.95;;;9.40;99.90;;;;;;5018917;28;20026;-64
2023/12/26 17:19:31;;;;;;;1.05;0.63;;;9.30;99.90;;;;;;4994770;28;20025;-64
2023/12/26 17:21:57;;;;;;;2.33;0.98;;;9.30;99.90;;;;;;4993876;28;20390;-64
2023/12/26 17:24:24;;;;;;;1.42;0.98;;;9.20;99.90;;;;;;4990994;28;20033;-62
2023/12/26 17:27:05;;;;;;;4.30;1.05;;;9.20;99.90;;;;;;5020213;28;20104;-62
2023/12/26 17:29:31;;;;;;;3.28;1.27;;;9.20;99.90;;;;;;4994514;28;20045;-61
2023/12/26 17:31:59;;;;;;;2.38;1.33;;;9.20;99.90;;;;;;5011054;28;20026;-63
2023/12/26 17:34:26;;;;;;;1.65;0.70;;;9.10;99.90;;;;;;5012532;28;20113;-62
2023/12/26 17:36:53;;;;;;;0.88;0.47;;;9.20;99.90;;;;;;5017035;28;20025;-63
2023/12/26 17:39:20;;;;;;;4.18;1.60;;;9.20;99.90;;;;;;4994736;28;20053;-63
2023/12/26 17:41:47;;;;;;;3.47;0.65;;;9.20;99.90;;;;;;5001379;28;20092;-64
2023/12/26 17:44:16;;;;;;;3.33;1.27;;;9.10;99.90;;;;;;5031458;28;20061;-61
2023/12/26 17:46:42;;;;;;;1.75;0.75;;;9.10;99.90;;;;;;4996549;28;20109;-63
2023/12/26 17:49:09;;;;;;;1.40;0.65;;;9.10;99.90;;;;;;5009474;28;20030;-62
2023/12/26 17:51:36;;;;;;;1.40;1.30;;;9.10;99.90;;;;;;5002093;28;20030;-63
2023/12/26 17:54:02;;;;;;;0.68;0.43;;;9.10;99.90;;;;;;5011945;28;20091;-63